createdAt,value
2018-07-02T00:01:24.099Z,15.50
2018-07-02T00:03:52.985Z,15.50
2018-07-02T00:06:36.037Z,15.30
2018-07-02T00:09:04.233Z,15.10
2018-07-02T00:11:33.453Z,15.00
2018-07-02T00:14:02.106Z,14.90
2018-07-02T00:16:30.889Z,14.80
2018-07-02T00:19:00.465Z,14.80
2018-07-02T00:21:28.948Z,14.90
2018-07-02T00:23:57.813Z,14.90
2018-07-02T00:26:26.136Z,14.90
2018-07-02T00:28:55.298Z,14.90
2018-07-02T00:31:23.862Z,14.80
2018-07-02T00:33:52.630Z,14.80
2018-07-02T00:36:21.826Z,14.60
2018-07-02T00:38:50.529Z,14.50
2018-07-02T00:41:18.915Z,14.30
2018-07-02T00:43:46.628Z,14.20
2018-07-02T00:46:14.252Z,14.20
2018-07-02T00:48:41.843Z,14.20
2018-07-02T00:51:09.445Z,14.20
2018-07-02T00:53:41.234Z,14.20
2018-07-02T00:56:08.806Z,14.10
2018-07-02T00:58:48.857Z,14.10
2018-07-02T01:01:16.520Z,14.00
2018-07-02T01:03:44.194Z,13.90
2018-07-02T01:06:11.788Z,13.90
2018-07-02T01:08:39.458Z,13.80
2018-07-02T01:11:07.062Z,14.00
2018-07-02T01:16:03.060Z,13.80
2018-07-02T01:18:31.557Z,13.80
2018-07-02T01:20:59.821Z,13.70
2018-07-02T01:23:28.056Z,13.60
2018-07-02T01:25:56.556Z,13.60
2018-07-02T01:28:24.907Z,13.70
2018-07-02T01:30:53.274Z,13.60
2018-07-02T01:33:21.018Z,13.70
2018-07-02T01:35:48.741Z,13.80
2018-07-02T01:38:16.380Z,13.60
2018-07-02T01:40:43.982Z,13.50
2018-07-02T01:43:11.653Z,13.70
2018-07-02T01:45:53.737Z,13.60
2018-07-02T01:48:21.875Z,13.60
2018-07-02T01:50:49.532Z,13.40
2018-07-02T01:53:17.167Z,13.30
2018-07-02T01:55:44.805Z,13.20
2018-07-02T01:58:12.479Z,13.20
2018-07-02T02:00:40.084Z,13.00
2018-07-02T02:03:08.026Z,12.90
2018-07-02T02:05:37.820Z,12.90
2018-07-02T02:08:06.338Z,13.00
2018-07-02T02:10:34.409Z,13.00
2018-07-02T02:13:03.011Z,13.00
2018-07-02T02:17:57.928Z,12.70
2018-07-02T02:20:25.550Z,12.80
2018-07-02T02:22:53.129Z,12.80
2018-07-02T02:25:20.811Z,12.90
2018-07-02T02:27:48.461Z,12.90
2018-07-02T02:30:17.192Z,12.70
2018-07-02T02:35:13.064Z,12.50
2018-07-02T02:40:08.822Z,12.30
2018-07-02T02:42:37.413Z,12.40
2018-07-02T02:45:06.167Z,12.40
2018-07-02T02:47:34.541Z,12.40
2018-07-02T02:50:03.659Z,12.30
2018-07-02T02:54:58.775Z,12.30
2018-07-02T02:57:26.744Z,12.20
2018-07-02T02:59:54.367Z,12.20
2018-07-02T03:02:29.751Z,12.00
2018-07-02T03:04:57.402Z,11.90
2018-07-02T03:07:24.999Z,12.00
2018-07-02T03:09:52.664Z,12.00
2018-07-02T03:12:20.455Z,12.00
2018-07-02T03:14:48.335Z,12.00
2018-07-02T03:17:15.958Z,12.00
2018-07-02T03:19:43.588Z,12.00
2018-07-02T03:22:11.271Z,11.90
2018-07-02T03:24:39.009Z,11.90
2018-07-02T03:27:07.275Z,11.90
2018-07-02T03:29:35.661Z,11.80
2018-07-02T03:32:04.374Z,11.70
2018-07-02T03:34:32.792Z,11.70
2018-07-02T03:37:01.488Z,11.70
2018-07-02T03:39:30.959Z,11.80
2018-07-02T03:41:59.937Z,11.70
2018-07-02T03:44:28.685Z,11.60
2018-07-02T03:46:56.865Z,11.50
2018-07-02T03:49:26.377Z,11.40
2018-07-02T03:51:55.714Z,11.50
2018-07-02T03:54:24.845Z,11.50
2018-07-02T03:56:53.748Z,11.50
2018-07-02T03:59:21.460Z,11.50
2018-07-02T04:01:49.145Z,11.60
2018-07-02T04:04:16.759Z,11.50
2018-07-02T04:06:44.359Z,11.80
2018-07-02T04:09:13.270Z,11.90
2018-07-02T04:11:46.205Z,11.90
2018-07-02T04:14:13.884Z,11.80
2018-07-02T04:16:41.797Z,12.00
2018-07-02T04:19:11.231Z,12.00
2018-07-02T04:21:39.931Z,12.10
2018-07-02T04:24:08.635Z,12.20
2018-07-02T04:26:37.634Z,12.30
2018-07-02T04:29:05.785Z,12.50
2018-07-02T04:31:34.319Z,12.60
2018-07-02T04:34:03.105Z,12.70
2018-07-02T04:36:31.528Z,12.90
2018-07-02T04:39:00.000Z,13.00
2018-07-02T04:41:28.925Z,13.10
2018-07-02T04:43:57.502Z,13.20
2018-07-02T04:46:27.040Z,13.40
2018-07-02T04:48:56.334Z,13.50
2018-07-02T04:51:24.513Z,13.70
2018-07-02T04:53:52.823Z,13.80
2018-07-02T04:56:20.624Z,13.90
2018-07-02T04:58:48.509Z,14.00
2018-07-02T05:01:23.408Z,14.10
2018-07-02T05:03:51.117Z,14.20
2018-07-02T05:06:18.739Z,14.30
2018-07-02T05:08:46.293Z,14.40
2018-07-02T05:11:13.912Z,14.30
2018-07-02T05:13:41.660Z,14.40
2018-07-02T05:16:09.318Z,14.40
2018-07-02T05:21:05.927Z,14.60
2018-07-02T05:23:34.873Z,14.90
2018-07-02T05:26:03.390Z,15.20
2018-07-02T05:28:32.379Z,15.40
2018-07-02T05:31:00.807Z,15.60
2018-07-02T05:33:29.450Z,15.80
2018-07-02T05:35:58.238Z,15.90
2018-07-02T05:38:28.043Z,16.00
2018-07-02T05:40:56.149Z,16.10
2018-07-02T05:43:24.408Z,16.30
2018-07-02T05:45:53.092Z,16.50
2018-07-02T05:48:21.517Z,16.70
2018-07-02T05:50:49.970Z,16.90
2018-07-02T05:53:19.426Z,17.00
2018-07-02T05:55:48.741Z,17.10
2018-07-02T05:58:16.908Z,17.20
2018-07-02T06:00:45.766Z,17.30
2018-07-02T06:03:15.653Z,17.40
2018-07-02T06:05:45.776Z,17.50
2018-07-02T06:08:14.535Z,17.50
2018-07-02T06:10:43.940Z,17.70
2018-07-02T06:13:13.178Z,17.80
2018-07-02T06:15:41.851Z,18.00
2018-07-02T06:18:12.377Z,18.20
2018-07-02T06:20:50.552Z,18.50
2018-07-02T06:23:18.997Z,18.70
2018-07-02T06:25:47.490Z,18.90
2018-07-02T06:28:17.181Z,19.10
2018-07-02T06:30:45.975Z,19.20
2018-07-02T06:33:14.546Z,19.40
2018-07-02T06:35:43.670Z,19.70
2018-07-02T06:38:14.517Z,19.80
2018-07-02T06:40:42.983Z,20.00
2018-07-02T06:43:12.914Z,20.20
2018-07-02T06:45:41.203Z,20.30
2018-07-02T06:48:08.984Z,20.50
2018-07-02T06:50:36.749Z,20.60
2018-07-02T06:53:04.394Z,20.80
2018-07-02T06:55:39.065Z,21.10
2018-07-02T06:58:06.911Z,21.20
2018-07-02T07:00:34.538Z,21.40
2018-07-02T07:03:02.231Z,21.50
2018-07-02T07:05:29.808Z,21.70
2018-07-02T07:07:57.386Z,21.70
2018-07-02T07:10:25.854Z,21.70
2018-07-02T07:12:54.479Z,21.60
2018-07-02T07:15:22.816Z,21.50
2018-07-02T07:17:50.879Z,21.50
2018-07-02T07:20:19.987Z,21.60
2018-07-02T07:22:48.181Z,21.80
2018-07-02T07:25:17.622Z,22.00
2018-07-02T07:27:46.955Z,22.20
2018-07-02T07:30:15.835Z,22.40
2018-07-02T07:32:43.604Z,22.60
2018-07-02T07:35:11.211Z,22.60
2018-07-02T07:37:38.822Z,22.50
2018-07-02T07:40:06.389Z,22.50
2018-07-02T07:45:04.912Z,22.70
2018-07-02T07:47:32.561Z,22.80
2018-07-02T07:50:00.175Z,23.20
2018-07-02T07:52:28.146Z,23.50
2018-07-02T07:54:56.572Z,23.70
2018-07-02T07:57:24.753Z,24.10
2018-07-02T07:59:53.022Z,24.40
2018-07-02T08:02:23.396Z,24.40
2018-07-02T08:04:51.798Z,24.40
2018-07-02T08:09:58.461Z,24.70
2018-07-02T08:12:27.326Z,24.90
2018-07-02T08:14:58.256Z,24.90
2018-07-02T08:17:26.189Z,24.90
2018-07-02T08:19:55.508Z,24.70
2018-07-02T08:22:26.193Z,24.70
2018-07-02T08:24:54.256Z,24.70
2018-07-02T08:27:22.712Z,24.60
2018-07-02T08:29:51.233Z,24.80
2018-07-02T08:32:29.015Z,25.00
2018-07-02T08:34:58.608Z,25.20
2018-07-02T08:37:28.900Z,25.30
2018-07-02T08:39:57.399Z,25.20
2018-07-02T08:42:26.615Z,25.40
2018-07-02T08:44:54.663Z,25.50
2018-07-02T08:47:22.342Z,25.30
2018-07-02T08:49:50.246Z,25.30
2018-07-02T08:52:18.852Z,25.20
2018-07-02T08:54:47.292Z,25.00
2018-07-02T08:57:15.579Z,25.10
2018-07-02T08:59:43.637Z,25.20
2018-07-02T09:04:40.408Z,25.50
2018-07-02T09:07:08.392Z,25.50
2018-07-02T09:09:36.171Z,25.50
2018-07-02T09:12:03.845Z,25.50
2018-07-02T09:14:31.417Z,25.40
2018-07-02T09:16:59.060Z,25.70
2018-07-02T09:19:26.649Z,25.40
2018-07-02T09:21:54.209Z,25.30
2018-07-02T09:24:29.129Z,25.20
2018-07-02T09:26:57.825Z,25.40
2018-07-02T09:29:30.147Z,25.50
2018-07-02T09:31:57.693Z,25.60
2018-07-02T09:34:38.181Z,25.70
2018-07-02T09:37:10.523Z,25.70
2018-07-02T09:39:41.416Z,25.90
2018-07-02T09:42:10.775Z,25.80
2018-07-02T09:44:40.139Z,25.80
2018-07-02T09:49:35.622Z,25.80
2018-07-02T09:52:03.158Z,26.00
2018-07-02T09:54:35.277Z,25.90
2018-07-02T09:59:30.072Z,26.00
2018-07-02T10:01:57.626Z,25.70
2018-07-02T10:04:25.237Z,26.00
2018-07-02T10:06:53.046Z,25.60
2018-07-02T10:11:49.849Z,25.70
2018-07-02T10:14:18.014Z,25.80
2018-07-02T10:16:46.245Z,26.00
2018-07-02T10:19:14.663Z,26.00
2018-07-02T10:21:44.263Z,26.00
2018-07-02T10:24:12.388Z,26.10
2018-07-02T10:26:44.007Z,26.00
2018-07-02T10:29:11.685Z,26.30
2018-07-02T10:31:39.223Z,26.60
2018-07-02T10:34:17.536Z,26.60
2018-07-02T10:36:45.176Z,26.20
2018-07-02T10:39:12.838Z,26.20
2018-07-02T10:41:49.483Z,26.30
2018-07-02T10:44:18.360Z,26.50
2018-07-02T10:46:46.357Z,26.50
2018-07-02T10:49:13.923Z,26.70
2018-07-02T10:51:41.548Z,26.90
2018-07-02T10:54:09.146Z,26.80
2018-07-02T10:56:36.771Z,26.70
2018-07-02T10:59:04.327Z,26.80
2018-07-02T11:01:31.983Z,26.90
2018-07-02T11:03:59.983Z,26.90
2018-07-02T11:06:28.341Z,26.90
2018-07-02T11:08:56.715Z,27.10
2018-07-02T11:11:25.275Z,27.00
2018-07-02T11:13:54.242Z,26.90
2018-07-02T11:18:51.416Z,27.40
2018-07-02T11:23:49.264Z,27.40
2018-07-02T11:26:18.099Z,27.20
2018-07-02T11:28:45.731Z,27.40
2018-07-02T11:31:13.370Z,27.40
2018-07-02T11:33:42.958Z,27.40
2018-07-02T11:36:18.592Z,27.40
2018-07-02T11:38:46.216Z,27.60
2018-07-02T11:41:14.236Z,27.70
2018-07-02T11:43:47.811Z,27.90
2018-07-02T11:46:19.786Z,27.70
2018-07-02T11:48:47.681Z,27.70
2018-07-02T11:51:15.257Z,28.00
2018-07-02T11:53:42.882Z,27.80
2018-07-02T11:56:12.644Z,27.60
2018-07-02T11:58:40.458Z,27.70
2018-07-02T12:01:08.045Z,27.80
2018-07-02T12:03:35.633Z,27.80
2018-07-02T12:06:03.177Z,27.80
2018-07-02T12:08:31.091Z,28.20
2018-07-02T12:10:59.198Z,28.40
2018-07-02T12:15:54.644Z,28.60
2018-07-02T12:18:28.676Z,28.60
2018-07-02T12:20:57.557Z,28.80
2018-07-02T12:23:25.190Z,28.80
2018-07-02T12:25:59.598Z,28.70
2018-07-02T12:28:27.856Z,28.80
2018-07-02T12:30:55.593Z,28.70
2018-07-02T12:33:23.234Z,28.90
2018-07-02T12:35:50.839Z,28.90
2018-07-02T12:38:24.413Z,28.90
2018-07-02T12:40:52.175Z,29.00
2018-07-02T12:43:19.743Z,28.90
2018-07-02T12:45:47.526Z,28.90
2018-07-02T12:48:17.095Z,28.70
2018-07-02T12:50:44.709Z,28.60
2018-07-02T12:53:12.318Z,28.80
2018-07-02T12:55:41.094Z,28.80
2018-07-02T12:58:09.168Z,28.70
2018-07-02T13:00:37.630Z,28.90
2018-07-02T13:05:59.172Z,29.10
2018-07-02T13:08:28.750Z,29.00
2018-07-02T13:10:56.930Z,29.00
2018-07-02T13:13:29.109Z,28.90
2018-07-02T13:15:58.389Z,28.80
2018-07-02T13:18:28.962Z,28.80
2018-07-02T13:20:56.737Z,28.70
2018-07-02T13:23:24.311Z,29.00
2018-07-02T13:25:51.929Z,29.10
2018-07-02T13:28:19.478Z,29.00
2018-07-02T13:30:57.977Z,28.90
2018-07-02T13:35:52.870Z,28.90
2018-07-02T13:38:20.483Z,28.90
2018-07-02T13:40:48.187Z,28.80
2018-07-02T13:45:56.534Z,28.70
2018-07-02T13:48:24.108Z,28.50
2018-07-02T13:50:51.684Z,28.60
2018-07-02T13:53:19.307Z,28.60
2018-07-02T13:55:46.974Z,28.40
2018-07-02T13:58:26.648Z,28.30
2018-07-02T14:00:54.337Z,28.20
2018-07-02T14:03:21.965Z,28.30
2018-07-02T14:05:57.918Z,28.40
2018-07-02T14:08:28.186Z,28.40
2018-07-02T14:10:55.905Z,28.60
2018-07-02T14:13:30.297Z,28.50
2018-07-02T14:15:59.702Z,28.50
2018-07-02T14:20:58.573Z,28.50
2018-07-02T14:23:28.368Z,28.50
2018-07-02T14:25:56.271Z,28.30
2018-07-02T14:28:23.833Z,28.10
2018-07-02T14:30:51.487Z,28.10
2018-07-02T14:33:19.091Z,28.00
2018-07-02T14:38:14.066Z,27.80
2018-07-02T14:40:41.582Z,27.60
2018-07-02T14:43:09.599Z,27.40
2018-07-02T14:45:37.818Z,27.40
2018-07-02T14:48:05.589Z,27.60
2018-07-02T14:50:37.433Z,27.50
2018-07-02T14:53:09.019Z,27.60
2018-07-02T14:55:36.930Z,27.70
2018-07-02T14:58:05.339Z,27.70
2018-07-02T15:00:33.402Z,27.70
2018-07-02T15:03:09.431Z,27.50
2018-07-02T15:05:37.866Z,27.40
2018-07-02T15:08:06.118Z,27.10
2018-07-02T15:10:34.517Z,27.00
2018-07-02T15:13:03.730Z,26.90
2018-07-02T15:15:32.203Z,26.90
2018-07-02T15:18:01.001Z,26.50
2018-07-02T15:20:29.383Z,26.30
2018-07-02T15:22:57.783Z,26.40
2018-07-02T15:25:29.791Z,26.50
2018-07-02T15:27:58.536Z,26.40
2018-07-02T15:30:26.303Z,26.20
2018-07-02T15:32:53.937Z,26.30
2018-07-02T15:35:21.538Z,26.40
2018-07-02T15:37:54.517Z,26.40
2018-07-02T15:40:22.182Z,26.50
2018-07-02T15:42:49.770Z,26.70
2018-07-02T15:45:17.412Z,26.80
2018-07-02T15:47:45.047Z,26.70
2018-07-02T15:50:12.844Z,26.80
2018-07-02T15:52:40.839Z,27.00
2018-07-02T15:55:09.124Z,26.90
2018-07-02T15:57:37.616Z,27.00
2018-07-02T16:00:05.794Z,26.80
2018-07-02T16:02:39.921Z,26.80
2018-07-02T16:05:08.145Z,26.80
2018-07-02T16:07:37.002Z,26.70
2018-07-02T16:10:05.586Z,26.70
2018-07-02T16:12:33.810Z,26.70
2018-07-02T16:15:02.088Z,26.70
2018-07-02T16:17:31.252Z,26.70
2018-07-02T16:20:00.465Z,26.50
2018-07-02T16:22:29.670Z,26.50
2018-07-02T16:24:58.289Z,26.40
2018-07-02T16:27:26.167Z,26.40
2018-07-02T16:29:54.906Z,26.40
2018-07-02T16:32:22.500Z,26.30
2018-07-02T16:34:55.486Z,26.40
2018-07-02T16:37:23.070Z,26.30
2018-07-02T16:39:50.652Z,26.40
2018-07-02T16:42:18.225Z,26.30
2018-07-02T16:44:45.829Z,26.20
2018-07-02T16:49:52.081Z,26.20
2018-07-02T16:52:19.670Z,26.20
2018-07-02T16:54:47.307Z,26.20
2018-07-02T16:57:15.863Z,26.00
2018-07-02T16:59:44.132Z,26.10
2018-07-02T17:02:11.814Z,25.90
2018-07-02T17:04:39.511Z,25.90
2018-07-02T17:07:07.854Z,25.90
2018-07-02T17:09:37.376Z,25.90
2018-07-02T17:12:05.724Z,25.80
2018-07-02T17:14:34.144Z,25.80
2018-07-02T17:17:02.712Z,25.70
2018-07-02T17:19:32.277Z,25.70
2018-07-02T17:22:00.604Z,25.70
2018-07-02T17:24:28.766Z,25.60
2018-07-02T17:26:56.913Z,25.60
2018-07-02T17:31:52.029Z,25.50
2018-07-02T17:34:27.911Z,25.50
2018-07-02T17:36:55.575Z,25.40
2018-07-02T17:39:23.967Z,25.40
2018-07-02T17:41:51.556Z,25.30
2018-07-02T17:44:19.114Z,25.30
2018-07-02T17:46:57.600Z,25.30
2018-07-02T17:49:25.255Z,25.20
2018-07-02T17:51:53.393Z,25.20
2018-07-02T17:54:25.743Z,25.10
2018-07-02T17:59:26.386Z,24.90
2018-07-02T18:01:54.051Z,24.90
2018-07-02T18:04:25.813Z,24.70
2018-07-02T18:06:53.583Z,24.60
2018-07-02T18:09:21.172Z,24.60
2018-07-02T18:11:48.765Z,24.60
2018-07-02T18:14:16.582Z,24.50
2018-07-02T18:16:56.775Z,24.40
2018-07-02T18:19:24.365Z,24.30
2018-07-02T18:21:52.055Z,24.30
2018-07-02T18:24:19.741Z,24.20
2018-07-02T18:26:47.683Z,24.10
2018-07-02T18:29:27.561Z,24.10
2018-07-02T18:31:55.397Z,24.00
2018-07-02T18:34:30.226Z,23.90
2018-07-02T18:36:58.410Z,23.90
2018-07-02T18:39:31.331Z,23.80
2018-07-02T18:41:59.708Z,23.80
2018-07-02T18:44:27.766Z,23.70
2018-07-02T18:46:55.369Z,23.70
2018-07-02T18:49:23.031Z,23.70
2018-07-02T18:51:50.670Z,23.70
2018-07-02T18:54:23.894Z,23.60
2018-07-02T18:59:24.473Z,23.40
2018-07-02T19:01:52.034Z,23.40
2018-07-02T19:04:30.086Z,23.30
2018-07-02T19:06:59.783Z,23.40
2018-07-02T19:09:30.750Z,23.30
2018-07-02T19:11:59.334Z,23.30
2018-07-02T19:14:30.450Z,23.30
2018-07-02T19:16:59.273Z,23.20
2018-07-02T19:19:29.870Z,23.20
2018-07-02T19:22:00.420Z,23.10
2018-07-02T19:24:28.803Z,23.10
2018-07-02T19:26:56.748Z,23.00
2018-07-02T19:29:24.718Z,22.90
2018-07-02T19:31:54.390Z,22.80
2018-07-02T19:34:22.031Z,22.70
2018-07-02T19:36:53.230Z,22.60
2018-07-02T19:39:21.010Z,22.60
2018-07-02T19:41:48.771Z,22.40
2018-07-02T19:44:16.439Z,22.40
2018-07-02T19:46:44.158Z,22.30
2018-07-02T19:49:13.861Z,22.10
2018-07-02T19:51:41.697Z,22.00
2018-07-02T19:54:09.476Z,21.90
2018-07-02T19:56:38.302Z,21.90
2018-07-02T19:59:07.254Z,21.70
2018-07-02T20:01:35.486Z,21.60
2018-07-02T20:04:03.846Z,21.50
2018-07-02T20:06:32.193Z,21.40
2018-07-02T20:09:00.635Z,21.30
2018-07-02T20:11:29.617Z,21.30
2018-07-02T20:13:58.450Z,21.30
2018-07-02T20:16:30.244Z,21.30
2018-07-02T20:19:00.083Z,21.20
2018-07-02T20:21:29.248Z,21.20
2018-07-02T20:23:57.273Z,21.10
2018-07-02T20:26:26.112Z,21.00
2018-07-02T20:28:54.080Z,20.90
2018-07-02T20:31:21.680Z,20.90
2018-07-02T20:33:55.053Z,20.90
2018-07-02T20:36:22.609Z,20.80
2018-07-02T20:39:04.041Z,20.70
2018-07-02T20:41:32.476Z,20.60
2018-07-02T20:44:01.252Z,20.50
2018-07-02T20:46:29.441Z,20.40
2018-07-02T20:48:57.690Z,20.30
2018-07-02T20:51:25.410Z,20.20
2018-07-02T20:53:59.382Z,20.10
2018-07-02T20:56:27.335Z,20.10
2018-07-02T20:58:54.939Z,20.00
2018-07-02T21:01:28.589Z,19.90
2018-07-02T21:03:56.459Z,20.00
2018-07-02T21:06:24.087Z,19.90
2018-07-02T21:08:53.726Z,19.80
2018-07-02T21:11:21.336Z,19.70
2018-07-02T21:13:48.953Z,19.70
2018-07-02T21:16:28.484Z,19.60
2018-07-02T21:18:59.556Z,19.60
2018-07-02T21:21:27.437Z,19.50
2018-07-02T21:23:59.330Z,19.40
2018-07-02T21:26:27.378Z,19.40
2018-07-02T21:28:55.082Z,19.40
2018-07-02T21:31:22.708Z,19.20
2018-07-02T21:33:51.339Z,19.20
2018-07-02T21:36:28.793Z,19.00
2018-07-02T21:38:59.084Z,19.00
2018-07-02T21:41:27.622Z,19.00
2018-07-02T21:43:58.345Z,18.80
2018-07-02T21:46:25.953Z,18.80
2018-07-02T21:51:28.017Z,18.60
2018-07-02T21:53:55.629Z,18.50
2018-07-02T21:56:23.182Z,18.30
2018-07-02T21:58:50.738Z,18.20
2018-07-02T22:01:30.498Z,18.10
2018-07-02T22:03:58.675Z,18.00
2018-07-02T22:06:26.369Z,17.90
2018-07-02T22:08:59.087Z,17.90
2018-07-02T22:11:27.265Z,17.80
2018-07-02T22:13:54.977Z,17.70
2018-07-02T22:16:22.711Z,17.60
2018-07-02T22:18:50.305Z,17.60
2018-07-02T22:21:17.885Z,17.50
2018-07-02T22:23:47.854Z,17.40
2018-07-02T22:26:15.613Z,17.50
2018-07-02T22:28:43.389Z,17.40
2018-07-02T22:31:11.607Z,17.30
2018-07-02T22:33:39.619Z,17.30
2018-07-02T22:36:09.093Z,17.30
2018-07-02T22:38:37.154Z,17.30
2018-07-02T22:43:33.668Z,17.20
2018-07-02T22:46:02.472Z,17.10
2018-07-02T22:50:59.833Z,17.10
2018-07-02T22:53:29.800Z,16.90
2018-07-02T22:56:00.964Z,16.70
2018-07-02T22:58:29.178Z,16.70
2018-07-02T23:01:00.076Z,16.60
2018-07-02T23:03:28.853Z,16.50
2018-07-02T23:05:58.024Z,16.60
2018-07-02T23:08:28.984Z,16.60
2018-07-02T23:10:58.246Z,16.60
2018-07-02T23:13:26.191Z,16.50
2018-07-02T23:15:59.606Z,16.50
2018-07-02T23:18:27.709Z,16.40
2018-07-02T23:20:55.326Z,16.30
2018-07-02T23:23:22.912Z,16.20
2018-07-02T23:25:50.518Z,16.20
2018-07-02T23:28:18.091Z,16.10
2018-07-02T23:30:45.898Z,16.10
2018-07-02T23:33:13.644Z,16.00
2018-07-02T23:38:09.819Z,15.90
2018-07-02T23:40:38.378Z,15.80
2018-07-02T23:43:08.102Z,15.80
2018-07-02T23:45:36.930Z,15.80
2018-07-02T23:48:05.399Z,15.80
2018-07-02T23:50:33.994Z,15.80
2018-07-02T23:53:03.604Z,15.60
2018-07-02T23:55:31.952Z,15.50
2018-07-02T23:58:00.869Z,15.60
